Astor, Florida
Current Conditions -  °F | °C
As of 1:55 AM on Friday 31 Oct 2014 (Local Time) from KDED Reporting Station
Clear Clear  
Wind Chill: 64°   Ceiling: Unl
Heat Index: 64°   Visibility: 10mi
Dew Point: 61°   Wind: 0mph
Humidity: 88%   Direction: NA
Pressure: 29.89"   Gusts: NA
Location:  29.15°N, 81.53°W
Report Text: KDED 310555Z AUTO 00000KT 10SM CLR 18/16 A2989 RMK AO1
Loading
Personal Weather Stations






























Interactive Weather Map
Tropical Storm Tracking
New forecast layout! Learn more

10-Day Weather Forecast

Advertisements
Track Severe Weather on mobile